Soaring Guidance
Issued by NWS Reno, NV

Home | Current Version | Previous Version | Text Only | Print | Product List | Glossary On
Versions: 1 2 3 4 5 6 7 8 9 10 11 12 13 14
000
UXUS97 KREV 011348
SRGREV

SOARING FORECAST
NATIONAL WEATHER SERVICE - RENO NV
700 AM PDT TUE SEP 1 2015

THIS SOARING FORECAST IS FOR THE EASTERN SIERRA AND WESTERN NEVADA
WITH SPECIFIC INDICES FOR THE GREATER RENO AREA.

THIS FORECAST IS PREPARED DAILY BY 700 AM AND IS NOT UPDATED.

FOR CURRENT FLIGHT CONDITIONS...FORECASTS...AND ADVISORIES...ACCESS
YOUR LOCAL BRIEFING OUTLET OR FLIGHT SERVICE STATION.

*******************************************************************
FORECASTED LOCAL INDICES FOR RENO:        TODAY     YESTERDAY
FORECASTED MAX TEMP AT RENO (DEG F).....     90          91
FORECASTED TRIGGER TEMPERATURE (DEG F)..     77          73
   EXCEEDED YESTERDAY BY 1155 AM PDT
FORECASTED MAXIMUM ALTITUDE (FT MSL)....  15800       14800
FORECASTED SOARING INDEX (FPM)..........    954         774
FORECASTED K-INDEX.........VALID 18Z....     -5          -4
FORECASTED K-INDEX.........VALID 00Z....      3          -5
FORECASTED LIFTED INDEX....VALID 18Z....     12          14
FORECASTED LIFTED INDEX....VALID 00Z....      8          10

AFTERNOON WINDS ALOFT FORECAST
MSL (FT) WIND/TEMP
9000  2513/+15
10000 2213/+12
12000 2112/+07
14000 2114/+02
16000 2216/-03
18000 2321/-08
24000 2426/-21
30000 2431/-38
34000 2430/-47
39000 2430/-55

SLIDE MOUNTAIN DATA:
     DATE       TIME     TEMP  DEWPT   RH         WIND (MPH)
                        (F)   (F)           | DIR  SPEED GUST
2015-09-01    05:50      50    22     23    | 238    7   11
2015-09-01    05:30      49    23     27    | 238    6   11
2015-09-01    05:20      49    24     30    | 238    7   11
2015-09-01    05:00      49    23     29    | 236    7   10

RENO TAF FORECAST:
KRNO 011120Z 0112/0212 VRB04KT P6SM SKC
     FM012200 27014G24KT P6SM SKC
     FM020500 VRB03KT P6SM SKC

CARSON CITY TAF FORECAST:
KCXP 011120Z 0112/0212 VRB03KT P6SM SKC
     FM012100 27013G22KT P6SM SKC
     FM020400 VRB03KT P6SM SKC

OUTLOOK FOR THE RENO-CARSON CITY-MINDEN AREA:
.WEDNESDAY...SUNNY IN THE MORNING THEN BECOMING PARTLY CLOUDY.
HIGHS 80 TO 85. SOUTHWEST WINDS AROUND 10 MPH INCREASING TO 15 TO
25 MPH WITH GUSTS UP TO 40 MPH IN THE AFTERNOON.

SUNRISE AND SUNSET
SEPTEMBER  1 2015.....SUNRISE   627 AM PDT   SUNSET   730 PM PDT
SEPTEMBER  2 2015.....SUNRISE   628 AM PDT   SUNSET   729 PM PDT


USA.gov is the U.S. government's official web portal to all federal, state and local government web resources and services.